Time,TemperatureF,DewpointF,PressureIn,WindDirection,WindDirectionDegrees,WindSpeedMPH,WindSpeedGustMPH,Humidity,HourlyPrecipIn,Conditions,Clouds,dailyrainin,SolarRadiationWatts/m^2,SoftwareType,DateUTC
2013-03-15 00:03:00,34.0,12.0,-100.00,North,-999,-999.0,-999.0,40,0.00,,,0.00,0.000000,,2013-03-15 04:03:00,
2013-03-15 00:10:00,34.0,11.0,-100.00,North,-999,-999.0,-999.0,38,0.00,,,0.00,0.000000,,2013-03-15 04:10:00,
2013-03-15 00:33:00,34.0,11.0,-100.00,North,-999,-999.0,-999.0,38,0.00,,,0.00,0.000000,,2013-03-15 04:33:00,
2013-03-15 00:43:00,34.0,11.0,-100.00,North,-999,-999.0,-999.0,38,0.00,,,0.00,0.000000,,2013-03-15 04:43:00,
2013-03-15 00:53:00,34.0,11.0,-100.00,North,-999,-999.0,-999.0,38,0.00,,,0.00,0.000000,,2013-03-15 04:53:00,
2013-03-15 01:02:00,34.0,11.0,-100.00,North,-999,-999.0,-999.0,38,0.00,,,0.00,0.000000,,2013-03-15 05:02:00,
2013-03-15 01:10:00,34.0,11.0,-100.00,North,-999,-999.0,-999.0,38,0.00,,,0.00,0.000000,,2013-03-15 05:10:00,
2013-03-15 01:32:00,34.0,11.0,-100.00,North,-999,-999.0,-999.0,38,0.00,,,0.00,0.000000,,2013-03-15 05:32:00,
2013-03-15 01:42:00,34.0,11.0,-100.00,North,-999,-999.0,-999.0,38,0.00,,,0.00,0.000000,,2013-03-15 05:42:00,
2013-03-15 01:52:00,34.0,11.0,-100.00,North,-999,-999.0,-999.0,38,0.00,,,0.00,0.000000,,2013-03-15 05:52:00,
2013-03-15 02:02:00,34.0,11.0,-100.00,North,-999,-999.0,-999.0,38,0.00,,,0.00,0.000000,,2013-03-15 06:02:00,
2013-03-15 02:10:00,34.0,11.0,-100.00,North,-999,-999.0,-999.0,38,0.00,,,0.00,0.000000,,2013-03-15 06:10:00,
2013-03-15 02:33:00,34.0,11.0,-100.00,North,-999,-999.0,-999.0,38,0.00,,,0.00,0.000000,,2013-03-15 06:33:00,
2013-03-15 02:42:00,34.0,11.0,-100.00,North,-999,-999.0,-999.0,38,0.00,,,0.00,0.000000,,2013-03-15 06:42:00,
2013-03-15 02:53:00,34.0,11.0,-100.00,North,-999,-999.0,-999.0,38,0.00,,,0.00,0.000000,,2013-03-15 06:53:00,
2013-03-15 03:02:00,34.0,11.0,-100.00,North,-999,-999.0,-999.0,38,0.00,,,0.00,0.000000,,2013-03-15 07:02:00,
2013-03-15 03:10:00,33.0,11.0,-100.00,North,-999,-999.0,-999.0,40,0.00,,,0.00,0.000000,,2013-03-15 07:10:00,
2013-03-15 03:32:00,33.0,11.0,-100.00,North,-999,-999.0,-999.0,40,0.00,,,0.00,0.000000,,2013-03-15 07:32:00,
2013-03-15 03:42:00,33.0,11.0,-100.00,North,-999,-999.0,-999.0,40,0.00,,,0.00,0.000000,,2013-03-15 07:42:00,
2013-03-15 03:52:00,33.0,11.0,-100.00,North,-999,-999.0,-999.0,40,0.00,,,0.00,0.000000,,2013-03-15 07:52:00,
2013-03-15 04:02:00,33.0,11.0,-100.00,North,-999,-999.0,-999.0,40,0.00,,,0.00,0.000000,,2013-03-15 08:02:00,
2013-03-15 04:10:00,33.0,13.0,-100.00,North,-999,-999.0,-999.0,43,0.00,,,-99.99,0.000000,,2013-03-15 08:10:00,
2013-03-15 04:33:00,33.0,13.0,-100.00,North,-999,-999.0,-999.0,43,0.00,,,-99.99,0.000000,,2013-03-15 08:33:00,
2013-03-15 04:42:00,33.0,13.0,-100.00,North,-999,-999.0,-999.0,43,0.00,,,-99.99,0.000000,,2013-03-15 08:42:00,
2013-03-15 04:53:00,33.0,13.0,-100.00,North,-999,-999.0,-999.0,43,0.00,,,-99.99,0.000000,,2013-03-15 08:53:00,
2013-03-15 05:02:00,33.0,13.0,-100.00,North,-999,-999.0,-999.0,43,0.00,,,-99.99,0.000000,,2013-03-15 09:02:00,
2013-03-15 05:10:00,33.0,13.0,-100.00,North,-999,-999.0,-999.0,43,0.00,,,-99.99,0.000000,,2013-03-15 09:10:00,
2013-03-15 05:33:00,33.0,13.0,-100.00,North,-999,-999.0,-999.0,43,0.00,,,-99.99,0.000000,,2013-03-15 09:33:00,
2013-03-15 05:43:00,33.0,13.0,-100.00,North,-999,-999.0,-999.0,43,0.00,,,-99.99,0.000000,,2013-03-15 09:43:00,
2013-03-15 05:53:00,33.0,13.0,-100.00,North,-999,-999.0,-999.0,43,0.00,,,-99.99,0.000000,,2013-03-15 09:53:00,
2013-03-15 06:03:00,33.0,13.0,-100.00,North,-999,-999.0,-999.0,43,0.00,,,-99.99,0.000000,,2013-03-15 10:03:00,
2013-03-15 06:10:00,33.0,15.0,-100.00,North,-999,-999.0,-999.0,48,0.00,,,-99.99,0.000000,,2013-03-15 10:10:00,
2013-03-15 06:33:00,33.0,15.0,-100.00,North,-999,-999.0,-999.0,48,0.00,,,-99.99,0.000000,,2013-03-15 10:33:00,
2013-03-15 06:43:00,33.0,15.0,-100.00,North,-999,-999.0,-999.0,48,0.00,,,-99.99,0.000000,,2013-03-15 10:43:00,
2013-03-15 06:52:00,33.0,15.0,-100.00,North,-999,-999.0,-999.0,48,0.00,,,-99.99,0.000000,,2013-03-15 10:52:00,
2013-03-15 07:03:00,33.0,15.0,-100.00,North,-999,-999.0,-999.0,48,0.00,,,-99.99,0.000000,,2013-03-15 11:03:00,
2013-03-15 07:10:00,33.0,17.0,-100.00,North,-999,-999.0,-999.0,51,0.00,,,-99.99,0.000000,,2013-03-15 11:10:00,
2013-03-15 07:33:00,33.0,17.0,-100.00,North,-999,-999.0,-999.0,51,0.00,,,-99.99,0.000000,,2013-03-15 11:33:00,
2013-03-15 07:42:00,33.0,17.0,-100.00,North,-999,-999.0,-999.0,51,0.00,,,-99.99,0.000000,,2013-03-15 11:42:00,
2013-03-15 07:52:00,33.0,17.0,-100.00,North,-999,-999.0,-999.0,51,0.00,,,-99.99,0.000000,,2013-03-15 11:52:00,
2013-03-15 08:02:00,33.0,17.0,-100.00,North,-999,-999.0,-999.0,51,0.00,,,-99.99,0.000000,,2013-03-15 12:02:00,
2013-03-15 08:10:00,34.0,21.0,-100.00,North,-999,-999.0,-999.0,58,0.00,,,-99.99,0.000000,,2013-03-15 12:10:00,
2013-03-15 08:32:00,34.0,21.0,-100.00,North,-999,-999.0,-999.0,58,0.00,,,-99.99,0.000000,,2013-03-15 12:32:00,
2013-03-15 08:42:00,34.0,21.0,-100.00,North,-999,-999.0,-999.0,58,0.00,,,-99.99,0.000000,,2013-03-15 12:42:00,
2013-03-15 08:52:00,34.0,21.0,-100.00,North,-999,-999.0,-999.0,58,0.00,,,-99.99,0.000000,,2013-03-15 12:52:00,
2013-03-15 09:02:00,34.0,21.0,-100.00,North,-999,-999.0,-999.0,58,0.00,,,-99.99,0.000000,,2013-03-15 13:02:00,
2013-03-15 09:10:00,37.0,20.0,-100.00,North,-999,-999.0,-999.0,50,0.00,,,0.00,0.000000,,2013-03-15 13:10:00,
2013-03-15 09:42:00,37.0,20.0,-100.00,North,-999,-999.0,-999.0,50,0.00,,,0.00,0.000000,,2013-03-15 13:42:00,
2013-03-15 09:53:00,37.0,20.0,-100.00,North,-999,-999.0,-999.0,50,0.00,,,0.00,0.000000,,2013-03-15 13:53:00,
2013-03-15 10:02:00,37.0,20.0,-100.00,North,-999,-999.0,-999.0,50,0.00,,,0.00,0.000000,,2013-03-15 14:02:00,
2013-03-15 10:10:00,43.0,23.0,-100.00,North,-999,-999.0,-999.0,45,0.00,,,0.00,0.000000,,2013-03-15 14:10:00,
2013-03-15 10:33:00,43.0,23.0,-100.00,North,-999,-999.0,-999.0,45,0.00,,,0.00,0.000000,,2013-03-15 14:33:00,
2013-03-15 10:42:00,43.0,23.0,-100.00,North,-999,-999.0,-999.0,45,0.00,,,0.00,0.000000,,2013-03-15 14:42:00,
2013-03-15 10:53:00,43.0,23.0,-100.00,North,-999,-999.0,-999.0,45,0.00,,,0.00,0.000000,,2013-03-15 14:53:00,
2013-03-15 11:02:00,43.0,23.0,-100.00,North,-999,-999.0,-999.0,45,0.00,,,0.00,0.000000,,2013-03-15 15:02:00,
2013-03-15 11:10:00,47.0,23.0,-100.00,North,-999,-999.0,-999.0,39,0.00,,,0.00,0.000000,,2013-03-15 15:10:00,
2013-03-15 11:33:00,47.0,23.0,-100.00,North,-999,-999.0,-999.0,39,0.00,,,0.00,0.000000,,2013-03-15 15:33:00,
2013-03-15 11:43:00,47.0,23.0,-100.00,North,-999,-999.0,-999.0,39,0.00,,,0.00,0.000000,,2013-03-15 15:43:00,
2013-03-15 11:53:00,47.0,23.0,-100.00,North,-999,-999.0,-999.0,39,0.00,,,0.00,0.000000,,2013-03-15 15:53:00,
2013-03-15 12:03:00,47.0,23.0,-100.00,North,-999,-999.0,-999.0,39,0.00,,,0.00,0.000000,,2013-03-15 16:03:00,
2013-03-15 12:10:00,53.0,25.0,-100.00,North,-999,-999.0,-999.0,34,0.00,,,0.00,0.000000,,2013-03-15 16:10:00,
2013-03-15 12:32:00,53.0,25.0,-100.00,North,-999,-999.0,-999.0,34,0.00,,,0.00,0.000000,,2013-03-15 16:32:00,
2013-03-15 12:42:00,53.0,25.0,-100.00,North,-999,-999.0,-999.0,34,0.00,,,0.00,0.000000,,2013-03-15 16:42:00,
2013-03-15 12:53:00,53.0,25.0,-100.00,North,-999,-999.0,-999.0,34,0.00,,,0.00,0.000000,,2013-03-15 16:53:00,
2013-03-15 13:02:00,53.0,25.0,-100.00,North,-999,-999.0,-999.0,34,0.00,,,0.00,0.000000,,2013-03-15 17:02:00,
2013-03-15 13:10:00,55.0,25.0,-100.00,North,-999,-999.0,-999.0,31,0.00,,,0.00,0.000000,,2013-03-15 17:10:00,
2013-03-15 13:33:00,55.0,25.0,-100.00,North,-999,-999.0,-999.0,31,0.00,,,0.00,0.000000,,2013-03-15 17:33:00,
2013-03-15 13:43:00,55.0,25.0,-100.00,North,-999,-999.0,-999.0,31,0.00,,,0.00,0.000000,,2013-03-15 17:43:00,
2013-03-15 13:53:00,55.0,25.0,-100.00,North,-999,-999.0,-999.0,31,0.00,,,0.00,0.000000,,2013-03-15 17:53:00,
2013-03-15 14:03:00,55.0,25.0,-100.00,North,-999,-999.0,-999.0,31,0.00,,,0.00,0.000000,,2013-03-15 18:03:00,
2013-03-15 14:10:00,59.0,28.0,-100.00,North,-999,-999.0,-999.0,30,0.00,,,0.00,0.000000,,2013-03-15 18:10:00,
2013-03-15 14:42:00,59.0,28.0,-100.00,North,-999,-999.0,-999.0,30,0.00,,,0.00,0.000000,,2013-03-15 18:42:00,
2013-03-15 14:53:00,59.0,28.0,-100.00,North,-999,-999.0,-999.0,30,0.00,,,0.00,0.000000,,2013-03-15 18:53:00,
2013-03-15 15:02:00,59.0,28.0,-100.00,North,-999,-999.0,-999.0,30,0.00,,,0.00,0.000000,,2013-03-15 19:02:00,
2013-03-15 15:10:00,62.0,29.0,-100.00,North,-999,-999.0,-999.0,29,0.00,,,-99.99,0.000000,,2013-03-15 19:10:00,
2013-03-15 15:42:00,62.0,29.0,-100.00,North,-999,-999.0,-999.0,29,0.00,,,-99.99,0.000000,,2013-03-15 19:42:00,
2013-03-15 15:53:00,62.0,29.0,-100.00,North,-999,-999.0,-999.0,29,0.00,,,-99.99,0.000000,,2013-03-15 19:53:00,
2013-03-15 16:03:00,62.0,29.0,-100.00,North,-999,-999.0,-999.0,29,0.00,,,-99.99,0.000000,,2013-03-15 20:03:00,
2013-03-15 16:10:00,61.0,29.0,-100.00,North,-999,-999.0,-999.0,29,0.00,,,0.00,0.000000,,2013-03-15 20:10:00,
2013-03-15 16:42:00,61.0,29.0,-100.00,North,-999,-999.0,-999.0,29,0.00,,,0.00,0.000000,,2013-03-15 20:42:00,
2013-03-15 16:52:00,61.0,29.0,-100.00,North,-999,-999.0,-999.0,29,0.00,,,0.00,0.000000,,2013-03-15 20:52:00,
2013-03-15 17:02:00,61.0,29.0,-100.00,North,-999,-999.0,-999.0,29,0.00,,,0.00,0.000000,,2013-03-15 21:02:00,
2013-03-15 17:10:00,63.0,31.0,-100.00,North,-999,-999.0,-999.0,30,0.00,,,0.00,0.000000,,2013-03-15 21:10:00,
2013-03-15 17:43:00,63.0,31.0,-100.00,North,-999,-999.0,-999.0,30,0.00,,,0.00,0.000000,,2013-03-15 21:43:00,
2013-03-15 17:53:00,63.0,31.0,-100.00,North,-999,-999.0,-999.0,30,0.00,,,0.00,0.000000,,2013-03-15 21:53:00,
2013-03-15 18:04:00,63.0,31.0,-100.00,North,-999,-999.0,-999.0,30,0.00,,,0.00,0.000000,,2013-03-15 22:04:00,
2013-03-15 18:10:00,64.0,30.0,-100.00,North,-999,-999.0,-999.0,28,0.00,,,0.00,0.000000,,2013-03-15 22:10:00,
2013-03-15 18:33:00,64.0,30.0,-100.00,North,-999,-999.0,-999.0,28,0.00,,,0.00,0.000000,,2013-03-15 22:33:00,
2013-03-15 18:42:00,64.0,30.0,-100.00,North,-999,-999.0,-999.0,28,0.00,,,0.00,0.000000,,2013-03-15 22:42:00,
2013-03-15 18:53:00,64.0,30.0,-100.00,North,-999,-999.0,-999.0,28,0.00,,,0.00,0.000000,,2013-03-15 22:53:00,
2013-03-15 19:03:00,64.0,30.0,-100.00,North,-999,-999.0,-999.0,28,0.00,,,0.00,0.000000,,2013-03-15 23:03:00,
2013-03-15 19:10:00,59.0,27.0,-100.00,North,-999,-999.0,-999.0,29,0.00,,,0.00,0.000000,,2013-03-15 23:10:00,
2013-03-15 19:42:00,59.0,27.0,-100.00,North,-999,-999.0,-999.0,29,0.00,,,0.00,0.000000,,2013-03-15 23:42:00,
2013-03-15 19:53:00,59.0,27.0,-100.00,North,-999,-999.0,-999.0,29,0.00,,,0.00,0.000000,,2013-03-15 23:53:00,
2013-03-15 20:03:00,59.0,27.0,-100.00,North,-999,-999.0,-999.0,29,0.00,,,0.00,0.000000,,2013-03-16 00:03:00,
2013-03-15 21:10:00,55.0,33.0,-100.00,North,-999,-999.0,-999.0,43,-99.99,,,0.00,0.000000,,2013-03-16 01:10:00,
2013-03-15 21:32:00,55.0,33.0,-100.00,North,-999,-999.0,-999.0,43,-99.99,,,0.00,0.000000,,2013-03-16 01:32:00,
2013-03-15 21:42:00,55.0,33.0,-100.00,North,-999,-999.0,-999.0,43,-99.99,,,0.00,0.000000,,2013-03-16 01:42:00,
2013-03-15 21:53:00,55.0,33.0,-100.00,North,-999,-999.0,-999.0,43,-99.99,,,0.00,0.000000,,2013-03-16 01:53:00,
2013-03-15 22:02:00,55.0,33.0,-100.00,North,-999,-999.0,-999.0,43,-99.99,,,0.00,0.000000,,2013-03-16 02:02:00,
2013-03-15 22:10:00,53.0,34.0,-100.00,North,-999,-999.0,-999.0,48,0.00,,,0.00,0.000000,,2013-03-16 02:10:00,
2013-03-15 22:43:00,53.0,34.0,-100.00,North,-999,-999.0,-999.0,48,0.00,,,0.00,0.000000,,2013-03-16 02:43:00,
2013-03-15 22:52:00,53.0,34.0,-100.00,North,-999,-999.0,-999.0,48,0.00,,,0.00,0.000000,,2013-03-16 02:52:00,
2013-03-15 23:02:00,53.0,34.0,-100.00,North,-999,-999.0,-999.0,48,0.00,,,0.00,0.000000,,2013-03-16 03:02:00,
2013-03-15 23:10:00,53.0,36.0,-100.00,North,-999,-999.0,-999.0,52,0.00,,,0.00,0.000000,,2013-03-16 03:10:00,
2013-03-15 23:43:00,53.0,36.0,-100.00,North,-999,-999.0,-999.0,52,0.00,,,0.00,0.000000,,2013-03-16 03:43:00,
2013-03-15 23:53:00,53.0,36.0,-100.00,North,-999,-999.0,-999.0,52,0.00,,,0.00,0.000000,,2013-03-16 03:53:00,